sensor_id;sensor_type;location;lat;lon;timestamp;temperature;humidity
27567;DHT22;15006;48.584;9.186;2023-05-07T00:00:58;10.90;85.80
27567;DHT22;15006;48.584;9.186;2023-05-07T00:03:25;10.80;85.90
27567;DHT22;15006;48.584;9.186;2023-05-07T00:05:52;10.80;86.20
27567;DHT22;15006;48.584;9.186;2023-05-07T00:08:18;10.70;86.30
27567;DHT22;15006;48.584;9.186;2023-05-07T00:10:46;10.70;86.60
27567;DHT22;15006;48.584;9.186;2023-05-07T00:13:12;10.60;86.70
27567;DHT22;15006;48.584;9.186;2023-05-07T00:15:39;10.60;87.00
27567;DHT22;15006;48.584;9.186;2023-05-07T00:18:06;10.60;87.30
27567;DHT22;15006;48.584;9.186;2023-05-07T00:20:33;10.50;87.50
27567;DHT22;15006;48.584;9.186;2023-05-07T00:23:00;10.50;87.70
27567;DHT22;15006;48.584;9.186;2023-05-07T00:25:27;10.50;88.00
27567;DHT22;15006;48.584;9.186;2023-05-07T00:27:53;10.40;88.30
27567;DHT22;15006;48.584;9.186;2023-05-07T00:30:19;10.40;88.50
27567;DHT22;15006;48.584;9.186;2023-05-07T00:32:45;10.40;88.60
27567;DHT22;15006;48.584;9.186;2023-05-07T00:35:11;10.40;88.80
27567;DHT22;15006;48.584;9.186;2023-05-07T00:37:38;10.40;89.00
27567;DHT22;15006;48.584;9.186;2023-05-07T00:40:04;10.30;89.00
27567;DHT22;15006;48.584;9.186;2023-05-07T00:42:33;10.30;89.30
27567;DHT22;15006;48.584;9.186;2023-05-07T00:44:59;10.30;89.50
27567;DHT22;15006;48.584;9.186;2023-05-07T00:47:25;10.40;89.90
27567;DHT22;15006;48.584;9.186;2023-05-07T00:49:52;10.30;89.80
27567;DHT22;15006;48.584;9.186;2023-05-07T00:52:20;10.30;89.80
27567;DHT22;15006;48.584;9.186;2023-05-07T00:54:47;10.30;89.80
27567;DHT22;15006;48.584;9.186;2023-05-07T00:57:14;10.30;90.00
27567;DHT22;15006;48.584;9.186;2023-05-07T00:59:41;10.30;90.00
27567;DHT22;15006;48.584;9.186;2023-05-07T01:02:07;10.20;90.10
27567;DHT22;15006;48.584;9.186;2023-05-07T01:04:33;10.20;90.10
27567;DHT22;15006;48.584;9.186;2023-05-07T01:07:01;10.20;90.20
27567;DHT22;15006;48.584;9.186;2023-05-07T01:09:28;10.20;90.20
27567;DHT22;15006;48.584;9.186;2023-05-07T01:11:55;10.20;90.30
27567;DHT22;15006;48.584;9.186;2023-05-07T01:14:23;10.10;90.20
27567;DHT22;15006;48.584;9.186;2023-05-07T01:16:49;10.10;90.30
27567;DHT22;15006;48.584;9.186;2023-05-07T01:19:19;10.10;90.40
27567;DHT22;15006;48.584;9.186;2023-05-07T01:21:47;10.10;90.50
27567;DHT22;15006;48.584;9.186;2023-05-07T01:24:14;10.10;90.50
27567;DHT22;15006;48.584;9.186;2023-05-07T01:26:42;10.10;90.50
27567;DHT22;15006;48.584;9.186;2023-05-07T01:29:09;10.10;90.50
27567;DHT22;15006;48.584;9.186;2023-05-07T01:31:36;10.10;90.50
27567;DHT22;15006;48.584;9.186;2023-05-07T01:34:03;10.10;90.50
27567;DHT22;15006;48.584;9.186;2023-05-07T01:36:31;10.00;90.60
27567;DHT22;15006;48.584;9.186;2023-05-07T01:38:58;10.00;90.60
27567;DHT22;15006;48.584;9.186;2023-05-07T01:41:25;10.00;90.70
27567;DHT22;15006;48.584;9.186;2023-05-07T01:43:52;10.00;90.70
27567;DHT22;15006;48.584;9.186;2023-05-07T01:46:19;10.00;90.90
27567;DHT22;15006;48.584;9.186;2023-05-07T01:48:45;10.00;91.00
27567;DHT22;15006;48.584;9.186;2023-05-07T01:51:11;10.00;91.10
27567;DHT22;15006;48.584;9.186;2023-05-07T01:53:39;10.00;91.00
27567;DHT22;15006;48.584;9.186;2023-05-07T01:56:06;10.00;91.10
27567;DHT22;15006;48.584;9.186;2023-05-07T01:58:33;10.00;91.20
27567;DHT22;15006;48.584;9.186;2023-05-07T02:00:59;10.00;91.10
27567;DHT22;15006;48.584;9.186;2023-05-07T02:03:25;9.90;91.00
27567;DHT22;15006;48.584;9.186;2023-05-07T02:05:51;9.90;91.00
27567;DHT22;15006;48.584;9.186;2023-05-07T02:08:17;9.90;91.00
27567;DHT22;15006;48.584;9.186;2023-05-07T02:10:43;9.80;91.10
27567;DHT22;15006;48.584;9.186;2023-05-07T02:13:09;9.80;91.20
27567;DHT22;15006;48.584;9.186;2023-05-07T02:15:35;9.80;91.30
27567;DHT22;15006;48.584;9.186;2023-05-07T02:18:06;9.80;91.30
27567;DHT22;15006;48.584;9.186;2023-05-07T02:20:33;9.80;91.30
27567;DHT22;15006;48.584;9.186;2023-05-07T02:22:59;9.70;91.30
27567;DHT22;15006;48.584;9.186;2023-05-07T02:25:26;9.70;91.30
27567;DHT22;15006;48.584;9.186;2023-05-07T02:27:52;9.70;91.30
27567;DHT22;15006;48.584;9.186;2023-05-07T02:30:18;9.70;91.40
27567;DHT22;15006;48.584;9.186;2023-05-07T02:32:43;9.70;91.40
27567;DHT22;15006;48.584;9.186;2023-05-07T02:35:10;9.60;91.40
27567;DHT22;15006;48.584;9.186;2023-05-07T02:37:36;9.60;91.40
27567;DHT22;15006;48.584;9.186;2023-05-07T02:40:02;9.60;91.40
27567;DHT22;15006;48.584;9.186;2023-05-07T02:42:29;9.50;91.50
27567;DHT22;15006;48.584;9.186;2023-05-07T02:44:55;9.50;91.60
27567;DHT22;15006;48.584;9.186;2023-05-07T02:47:21;9.50;91.60
27567;DHT22;15006;48.584;9.186;2023-05-07T02:49:48;9.50;91.70
27567;DHT22;15006;48.584;9.186;2023-05-07T02:52:13;9.50;91.80
27567;DHT22;15006;48.584;9.186;2023-05-07T02:54:39;9.40;91.80
27567;DHT22;15006;48.584;9.186;2023-05-07T02:57:05;9.40;91.80
27567;DHT22;15006;48.584;9.186;2023-05-07T02:59:31;9.40;91.80
27567;DHT22;15006;48.584;9.186;2023-05-07T03:01:58;9.30;91.80
27567;DHT22;15006;48.584;9.186;2023-05-07T03:04:24;9.30;92.00
27567;DHT22;15006;48.584;9.186;2023-05-07T03:06:50;9.30;92.10
27567;DHT22;15006;48.584;9.186;2023-05-07T03:09:16;9.30;92.10
27567;DHT22;15006;48.584;9.186;2023-05-07T03:11:42;9.20;92.10
27567;DHT22;15006;48.584;9.186;2023-05-07T03:14:08;9.20;92.20
27567;DHT22;15006;48.584;9.186;2023-05-07T03:16:34;9.20;92.20
27567;DHT22;15006;48.584;9.186;2023-05-07T03:19:00;9.20;92.30
27567;DHT22;15006;48.584;9.186;2023-05-07T03:21:26;9.20;92.40
27567;DHT22;15006;48.584;9.186;2023-05-07T03:23:52;9.10;92.50
27567;DHT22;15006;48.584;9.186;2023-05-07T03:26:18;9.10;92.60
27567;DHT22;15006;48.584;9.186;2023-05-07T03:28:45;9.10;92.70
27567;DHT22;15006;48.584;9.186;2023-05-07T03:31:11;9.10;92.70
27567;DHT22;15006;48.584;9.186;2023-05-07T03:33:49;9.00;92.80
27567;DHT22;15006;48.584;9.186;2023-05-07T03:36:16;9.10;92.90
27567;DHT22;15006;48.584;9.186;2023-05-07T03:38:42;9.10;92.80
27567;DHT22;15006;48.584;9.186;2023-05-07T03:41:08;9.00;92.70
27567;DHT22;15006;48.584;9.186;2023-05-07T03:43:34;8.90;92.60
27567;DHT22;15006;48.584;9.186;2023-05-07T03:46:00;8.90;92.60
27567;DHT22;15006;48.584;9.186;2023-05-07T03:48:26;8.80;92.50
27567;DHT22;15006;48.584;9.186;2023-05-07T03:50:53;8.80;92.40
27567;DHT22;15006;48.584;9.186;2023-05-07T03:53:19;8.70;92.40
27567;DHT22;15006;48.584;9.186;2023-05-07T03:55:45;8.70;92.60
27567;DHT22;15006;48.584;9.186;2023-05-07T03:58:11;8.60;92.80
27567;DHT22;15006;48.584;9.186;2023-05-07T04:00:37;8.60;93.00
27567;DHT22;15006;48.584;9.186;2023-05-07T04:03:05;8.60;93.20
27567;DHT22;15006;48.584;9.186;2023-05-07T04:05:31;8.50;93.30
27567;DHT22;15006;48.584;9.186;2023-05-07T04:07:58;8.50;93.30
27567;DHT22;15006;48.584;9.186;2023-05-07T04:10:25;8.50;93.40
27567;DHT22;15006;48.584;9.186;2023-05-07T04:12:51;8.40;93.40
27567;DHT22;15006;48.584;9.186;2023-05-07T04:15:17;8.40;93.50
27567;DHT22;15006;48.584;9.186;2023-05-07T04:17:43;8.40;93.60
27567;DHT22;15006;48.584;9.186;2023-05-07T04:20:10;8.30;93.80
27567;DHT22;15006;48.584;9.186;2023-05-07T04:22:38;8.30;94.00
27567;DHT22;15006;48.584;9.186;2023-05-07T04:25:04;8.30;94.10
27567;DHT22;15006;48.584;9.186;2023-05-07T04:27:30;8.30;94.10
27567;DHT22;15006;48.584;9.186;2023-05-07T04:29:56;8.20;94.20
27567;DHT22;15006;48.584;9.186;2023-05-07T04:32:22;8.20;94.40
27567;DHT22;15006;48.584;9.186;2023-05-07T04:34:50;8.20;94.60
27567;DHT22;15006;48.584;9.186;2023-05-07T04:37:16;8.10;94.60
27567;DHT22;15006;48.584;9.186;2023-05-07T04:39:42;8.10;94.70
27567;DHT22;15006;48.584;9.186;2023-05-07T04:42:08;8.10;94.80
27567;DHT22;15006;48.584;9.186;2023-05-07T04:44:35;8.10;95.00
27567;DHT22;15006;48.584;9.186;2023-05-07T04:47:02;8.10;95.20
27567;DHT22;15006;48.584;9.186;2023-05-07T04:49:28;8.10;95.60
27567;DHT22;15006;48.584;9.186;2023-05-07T04:51:55;8.10;96.00
27567;DHT22;15006;48.584;9.186;2023-05-07T04:54:20;8.10;96.40
27567;DHT22;15006;48.584;9.186;2023-05-07T04:56:46;8.20;96.70
27567;DHT22;15006;48.584;9.186;2023-05-07T04:59:13;8.20;96.90
27567;DHT22;15006;48.584;9.186;2023-05-07T05:01:39;8.30;97.10
27567;DHT22;15006;48.584;9.186;2023-05-07T05:04:05;8.30;97.50
27567;DHT22;15006;48.584;9.186;2023-05-07T05:06:31;8.40;97.90
27567;DHT22;15006;48.584;9.186;2023-05-07T05:08:57;8.50;98.30
27567;DHT22;15006;48.584;9.186;2023-05-07T05:11:23;8.70;98.60
27567;DHT22;15006;48.584;9.186;2023-05-07T05:13:49;8.80;99.00
27567;DHT22;15006;48.584;9.186;2023-05-07T05:16:15;8.90;99.10
27567;DHT22;15006;48.584;9.186;2023-05-07T05:18:41;9.00;99.40
27567;DHT22;15006;48.584;9.186;2023-05-07T05:21:07;9.20;99.60
27567;DHT22;15006;48.584;9.186;2023-05-07T05:23:33;9.40;99.70
27567;DHT22;15006;48.584;9.186;2023-05-07T05:25:59;9.60;99.70
27567;DHT22;15006;48.584;9.186;2023-05-07T05:28:25;9.80;99.80
27567;DHT22;15006;48.584;9.186;2023-05-07T05:30:53;10.00;99.90
27567;DHT22;15006;48.584;9.186;2023-05-07T05:33:19;10.20;99.90
27567;DHT22;15006;48.584;9.186;2023-05-07T05:35:45;10.40;99.90
27567;DHT22;15006;48.584;9.186;2023-05-07T05:38:11;10.70;99.90
27567;DHT22;15006;48.584;9.186;2023-05-07T05:40:38;10.90;99.90
27567;DHT22;15006;48.584;9.186;2023-05-07T05:43:06;11.10;99.90
27567;DHT22;15006;48.584;9.186;2023-05-07T05:45:31;11.40;99.90
27567;DHT22;15006;48.584;9.186;2023-05-07T05:47:57;11.60;99.60
27567;DHT22;15006;48.584;9.186;2023-05-07T05:50:23;11.80;99.20
27567;DHT22;15006;48.584;9.186;2023-05-07T05:52:50;12.00;98.00
27567;DHT22;15006;48.584;9.186;2023-05-07T05:55:16;12.20;96.30
27567;DHT22;15006;48.584;9.186;2023-05-07T05:57:42;12.40;95.20
27567;DHT22;15006;48.584;9.186;2023-05-07T06:00:09;12.60;93.90
27567;DHT22;15006;48.584;9.186;2023-05-07T06:02:35;12.60;93.20
27567;DHT22;15006;48.584;9.186;2023-05-07T06:05:01;12.70;92.90
27567;DHT22;15006;48.584;9.186;2023-05-07T06:07:27;12.90;92.60
27567;DHT22;15006;48.584;9.186;2023-05-07T06:09:53;13.00;92.40
27567;DHT22;15006;48.584;9.186;2023-05-07T06:12:20;13.10;92.30
27567;DHT22;15006;48.584;9.186;2023-05-07T06:14:51;13.20;91.60
27567;DHT22;15006;48.584;9.186;2023-05-07T06:17:18;13.30;91.40
27567;DHT22;15006;48.584;9.186;2023-05-07T06:19:44;13.40;91.00
27567;DHT22;15006;48.584;9.186;2023-05-07T06:22:10;13.50;90.80
27567;DHT22;15006;48.584;9.186;2023-05-07T06:24:36;13.60;90.70
27567;DHT22;15006;48.584;9.186;2023-05-07T06:27:02;13.70;90.70
27567;DHT22;15006;48.584;9.186;2023-05-07T06:29:28;13.80;90.30
27567;DHT22;15006;48.584;9.186;2023-05-07T06:31:55;14.00;89.40
27567;DHT22;15006;48.584;9.186;2023-05-07T06:34:21;14.10;89.70
27567;DHT22;15006;48.584;9.186;2023-05-07T06:36:47;14.20;89.50
27567;DHT22;15006;48.584;9.186;2023-05-07T06:39:13;14.30;88.40
27567;DHT22;15006;48.584;9.186;2023-05-07T06:41:39;14.40;87.60
27567;DHT22;15006;48.584;9.186;2023-05-07T06:44:05;14.60;87.40
27567;DHT22;15006;48.584;9.186;2023-05-07T06:46:32;14.80;87.30
27567;DHT22;15006;48.584;9.186;2023-05-07T06:48:58;14.90;85.10
27567;DHT22;15006;48.584;9.186;2023-05-07T06:51:24;15.00;84.30
27567;DHT22;15006;48.584;9.186;2023-05-07T06:53:50;15.20;85.10
27567;DHT22;15006;48.584;9.186;2023-05-07T06:56:15;15.40;85.30
27567;DHT22;15006;48.584;9.186;2023-05-07T06:58:41;15.50;85.00
27567;DHT22;15006;48.584;9.186;2023-05-07T07:01:19;15.60;84.30
27567;DHT22;15006;48.584;9.186;2023-05-07T07:03:45;15.80;83.00
27567;DHT22;15006;48.584;9.186;2023-05-07T07:06:12;15.90;82.00
27567;DHT22;15006;48.584;9.186;2023-05-07T07:08:38;16.00;81.00
27567;DHT22;15006;48.584;9.186;2023-05-07T07:11:05;16.00;79.70
27567;DHT22;15006;48.584;9.186;2023-05-07T07:13:31;16.00;79.00
27567;DHT22;15006;48.584;9.186;2023-05-07T07:15:57;16.10;79.90
27567;DHT22;15006;48.584;9.186;2023-05-07T07:18:23;16.20;79.30
27567;DHT22;15006;48.584;9.186;2023-05-07T07:20:49;16.30;80.00
27567;DHT22;15006;48.584;9.186;2023-05-07T07:23:15;16.30;78.80
27567;DHT22;15006;48.584;9.186;2023-05-07T07:25:41;16.40;78.90
27567;DHT22;15006;48.584;9.186;2023-05-07T07:28:07;16.50;78.90
27567;DHT22;15006;48.584;9.186;2023-05-07T07:30:33;16.60;79.20
27567;DHT22;15006;48.584;9.186;2023-05-07T07:32:59;16.70;80.10
27567;DHT22;15006;48.584;9.186;2023-05-07T07:35:31;16.90;78.20
27567;DHT22;15006;48.584;9.186;2023-05-07T07:37:58;17.10;76.70
27567;DHT22;15006;48.584;9.186;2023-05-07T07:40:26;17.30;77.10
27567;DHT22;15006;48.584;9.186;2023-05-07T07:42:53;17.50;76.00
27567;DHT22;15006;48.584;9.186;2023-05-07T07:45:19;17.60;74.80
27567;DHT22;15006;48.584;9.186;2023-05-07T07:47:45;17.80;73.90
27567;DHT22;15006;48.584;9.186;2023-05-07T07:50:11;17.80;72.20
27567;DHT22;15006;48.584;9.186;2023-05-07T07:52:37;17.90;71.20
27567;DHT22;15006;48.584;9.186;2023-05-07T07:55:04;17.90;70.90
27567;DHT22;15006;48.584;9.186;2023-05-07T07:57:30;18.00;69.90
27567;DHT22;15006;48.584;9.186;2023-05-07T07:59:56;18.00;71.20
27567;DHT22;15006;48.584;9.186;2023-05-07T08:02:22;18.10;70.70
27567;DHT22;15006;48.584;9.186;2023-05-07T08:04:48;18.20;69.40
27567;DHT22;15006;48.584;9.186;2023-05-07T08:07:14;18.30;68.80
27567;DHT22;15006;48.584;9.186;2023-05-07T08:09:40;18.30;68.10
27567;DHT22;15006;48.584;9.186;2023-05-07T08:12:07;18.30;68.50
27567;DHT22;15006;48.584;9.186;2023-05-07T08:14:34;18.20;67.30
27567;DHT22;15006;48.584;9.186;2023-05-07T08:17:00;18.20;68.00
27567;DHT22;15006;48.584;9.186;2023-05-07T08:19:26;18.20;68.30
27567;DHT22;15006;48.584;9.186;2023-05-07T08:21:52;18.30;69.00
27567;DHT22;15006;48.584;9.186;2023-05-07T08:24:19;18.40;68.30
27567;DHT22;15006;48.584;9.186;2023-05-07T08:26:45;18.60;68.10
27567;DHT22;15006;48.584;9.186;2023-05-07T08:29:12;18.80;69.10
27567;DHT22;15006;48.584;9.186;2023-05-07T08:31:38;19.00;68.30
27567;DHT22;15006;48.584;9.186;2023-05-07T08:34:05;19.30;67.30
27567;DHT22;15006;48.584;9.186;2023-05-07T08:36:32;19.70;66.10
27567;DHT22;15006;48.584;9.186;2023-05-07T08:38:59;19.90;64.20
27567;DHT22;15006;48.584;9.186;2023-05-07T08:41:25;20.20;64.60
27567;DHT22;15006;48.584;9.186;2023-05-07T08:43:51;20.50;64.10
27567;DHT22;15006;48.584;9.186;2023-05-07T08:46:20;20.80;63.40
27567;DHT22;15006;48.584;9.186;2023-05-07T08:48:50;21.20;62.10
27567;DHT22;15006;48.584;9.186;2023-05-07T08:51:19;21.40;59.50
27567;DHT22;15006;48.584;9.186;2023-05-07T08:53:47;21.70;60.00
27567;DHT22;15006;48.584;9.186;2023-05-07T08:56:14;21.90;59.40
27567;DHT22;15006;48.584;9.186;2023-05-07T08:58:45;22.10;60.40
27567;DHT22;15006;48.584;9.186;2023-05-07T09:01:16;22.40;59.70
27567;DHT22;15006;48.584;9.186;2023-05-07T09:03:46;22.60;58.30
27567;DHT22;15006;48.584;9.186;2023-05-07T09:06:12;22.90;57.70
27567;DHT22;15006;48.584;9.186;2023-05-07T09:08:38;23.20;59.00
27567;DHT22;15006;48.584;9.186;2023-05-07T09:11:04;23.40;57.10
27567;DHT22;15006;48.584;9.186;2023-05-07T09:13:30;23.60;56.30
27567;DHT22;15006;48.584;9.186;2023-05-07T09:15:56;23.80;55.00
27567;DHT22;15006;48.584;9.186;2023-05-07T09:18:26;23.90;55.70
27567;DHT22;15006;48.584;9.186;2023-05-07T09:20:51;24.00;54.60
27567;DHT22;15006;48.584;9.186;2023-05-07T09:23:17;24.10;54.90
27567;DHT22;15006;48.584;9.186;2023-05-07T09:25:43;24.20;54.00
27567;DHT22;15006;48.584;9.186;2023-05-07T09:28:10;24.30;53.50
27567;DHT22;15006;48.584;9.186;2023-05-07T09:30:36;24.40;53.70
27567;DHT22;15006;48.584;9.186;2023-05-07T09:33:03;24.50;53.20
27567;DHT22;15006;48.584;9.186;2023-05-07T09:35:30;24.60;53.60
27567;DHT22;15006;48.584;9.186;2023-05-07T09:37:58;24.60;53.20
27567;DHT22;15006;48.584;9.186;2023-05-07T09:40:28;24.70;51.90
27567;DHT22;15006;48.584;9.186;2023-05-07T09:42:55;24.70;51.20
27567;DHT22;15006;48.584;9.186;2023-05-07T09:47:49;24.70;51.60
27567;DHT22;15006;48.584;9.186;2023-05-07T09:50:25;24.60;49.80
27567;DHT22;15006;48.584;9.186;2023-05-07T09:52:55;24.60;49.30
27567;DHT22;15006;48.584;9.186;2023-05-07T09:55:22;24.50;50.70
27567;DHT22;15006;48.584;9.186;2023-05-07T09:57:50;24.60;51.10
27567;DHT22;15006;48.584;9.186;2023-05-07T10:00:22;24.70;51.90
27567;DHT22;15006;48.584;9.186;2023-05-07T10:02:50;24.90;51.10
27567;DHT22;15006;48.584;9.186;2023-05-07T10:05:21;25.10;51.80
27567;DHT22;15006;48.584;9.186;2023-05-07T10:07:48;25.30;50.30
27567;DHT22;15006;48.584;9.186;2023-05-07T10:10:16;25.50;50.70
27567;DHT22;15006;48.584;9.186;2023-05-07T10:12:43;25.70;50.90
27567;DHT22;15006;48.584;9.186;2023-05-07T10:15:10;25.90;50.20
27567;DHT22;15006;48.584;9.186;2023-05-07T10:17:40;26.20;50.50
27567;DHT22;15006;48.584;9.186;2023-05-07T10:20:07;26.40;49.20
27567;DHT22;15006;48.584;9.186;2023-05-07T10:22:40;26.60;49.70
27567;DHT22;15006;48.584;9.186;2023-05-07T10:25:18;26.90;49.50
27567;DHT22;15006;48.584;9.186;2023-05-07T10:27:52;27.10;48.70
27567;DHT22;15006;48.584;9.186;2023-05-07T10:30:24;27.30;49.60
27567;DHT22;15006;48.584;9.186;2023-05-07T10:32:56;27.60;48.00
27567;DHT22;15006;48.584;9.186;2023-05-07T10:35:37;27.80;47.20
27567;DHT22;15006;48.584;9.186;2023-05-07T10:38:05;28.10;46.80
27567;DHT22;15006;48.584;9.186;2023-05-07T10:40:31;28.20;47.10
27567;DHT22;15006;48.584;9.186;2023-05-07T10:43:02;28.40;46.70
27567;DHT22;15006;48.584;9.186;2023-05-07T10:45:33;28.60;46.00
27567;DHT22;15006;48.584;9.186;2023-05-07T10:48:15;28.70;45.30
27567;DHT22;15006;48.584;9.186;2023-05-07T10:50:45;28.90;40.10
27567;DHT22;15006;48.584;9.186;2023-05-07T10:55:51;29.00;40.60
27567;DHT22;15006;48.584;9.186;2023-05-07T11:00:47;28.90;41.90
27567;DHT22;15006;48.584;9.186;2023-05-07T11:03:14;28.80;41.60
27567;DHT22;15006;48.584;9.186;2023-05-07T11:05:42;28.70;42.00
27567;DHT22;15006;48.584;9.186;2023-05-07T11:08:09;28.70;43.40
27567;DHT22;15006;48.584;9.186;2023-05-07T11:10:54;28.70;42.70
27567;DHT22;15006;48.584;9.186;2023-05-07T11:13:41;28.60;42.20
27567;DHT22;15006;48.584;9.186;2023-05-07T11:16:19;28.70;42.60
27567;DHT22;15006;48.584;9.186;2023-05-07T11:18:51;28.70;42.40
27567;DHT22;15006;48.584;9.186;2023-05-07T11:21:40;28.90;43.30
27567;DHT22;15006;48.584;9.186;2023-05-07T11:24:10;29.00;41.30
27567;DHT22;15006;48.584;9.186;2023-05-07T11:26:47;29.20;41.90
27567;DHT22;15006;48.584;9.186;2023-05-07T11:29:17;29.30;42.10
27567;DHT22;15006;48.584;9.186;2023-05-07T11:31:53;29.40;42.80
27567;DHT22;15006;48.584;9.186;2023-05-07T11:34:22;29.50;41.40
27567;DHT22;15006;48.584;9.186;2023-05-07T11:36:51;29.60;42.30
27567;DHT22;15006;48.584;9.186;2023-05-07T11:41:59;29.80;39.40
27567;DHT22;15006;48.584;9.186;2023-05-07T11:44:48;29.80;40.60
27567;DHT22;15006;48.584;9.186;2023-05-07T11:47:18;29.80;38.40
27567;DHT22;15006;48.584;9.186;2023-05-07T11:49:48;29.70;39.50
27567;DHT22;15006;48.584;9.186;2023-05-07T11:52:15;29.60;42.80
27567;DHT22;15006;48.584;9.186;2023-05-07T11:54:55;29.50;40.90
27567;DHT22;15006;48.584;9.186;2023-05-07T11:57:24;29.10;39.90
27567;DHT22;15006;48.584;9.186;2023-05-07T11:59:57;28.80;39.70
27567;DHT22;15006;48.584;9.186;2023-05-07T12:02:24;28.40;39.30
27567;DHT22;15006;48.584;9.186;2023-05-07T12:04:51;27.90;39.90
27567;DHT22;15006;48.584;9.186;2023-05-07T12:07:18;27.40;40.50
27567;DHT22;15006;48.584;9.186;2023-05-07T12:09:45;26.90;41.30
27567;DHT22;15006;48.584;9.186;2023-05-07T12:12:13;26.30;41.00
27567;DHT22;15006;48.584;9.186;2023-05-07T12:14:42;25.70;41.50
27567;DHT22;15006;48.584;9.186;2023-05-07T12:17:10;25.20;42.90
27567;DHT22;15006;48.584;9.186;2023-05-07T12:19:38;24.60;43.70
27567;DHT22;15006;48.584;9.186;2023-05-07T12:22:07;24.10;45.50
27567;DHT22;15006;48.584;9.186;2023-05-07T12:24:44;23.60;45.80
27567;DHT22;15006;48.584;9.186;2023-05-07T12:27:15;23.10;45.70
27567;DHT22;15006;48.584;9.186;2023-05-07T12:29:46;22.70;46.90
27567;DHT22;15006;48.584;9.186;2023-05-07T12:32:17;22.30;46.70
27567;DHT22;15006;48.584;9.186;2023-05-07T12:34:44;22.00;47.40
27567;DHT22;15006;48.584;9.186;2023-05-07T12:37:10;21.70;48.40
27567;DHT22;15006;48.584;9.186;2023-05-07T12:39:38;21.40;49.10
27567;DHT22;15006;48.584;9.186;2023-05-07T12:42:15;21.10;49.30
27567;DHT22;15006;48.584;9.186;2023-05-07T12:44:45;20.90;50.20
27567;DHT22;15006;48.584;9.186;2023-05-07T12:47:12;20.60;49.80
27567;DHT22;15006;48.584;9.186;2023-05-07T12:49:38;20.40;50.00
27567;DHT22;15006;48.584;9.186;2023-05-07T12:52:06;20.10;50.20
27567;DHT22;15006;48.584;9.186;2023-05-07T12:54:33;19.80;50.90
27567;DHT22;15006;48.584;9.186;2023-05-07T12:57:06;19.60;51.40
27567;DHT22;15006;48.584;9.186;2023-05-07T12:59:36;19.20;51.90
27567;DHT22;15006;48.584;9.186;2023-05-07T13:02:05;18.90;52.30
27567;DHT22;15006;48.584;9.186;2023-05-07T13:04:31;18.60;52.70
27567;DHT22;15006;48.584;9.186;2023-05-07T13:06:58;18.30;53.20
27567;DHT22;15006;48.584;9.186;2023-05-07T13:09:24;18.10;53.80
27567;DHT22;15006;48.584;9.186;2023-05-07T13:11:50;17.80;54.40
27567;DHT22;15006;48.584;9.186;2023-05-07T13:14:17;17.60;55.10
27567;DHT22;15006;48.584;9.186;2023-05-07T13:16:43;17.40;56.20
27567;DHT22;15006;48.584;9.186;2023-05-07T13:19:09;17.10;57.20
27567;DHT22;15006;48.584;9.186;2023-05-07T13:21:35;16.80;57.50
27567;DHT22;15006;48.584;9.186;2023-05-07T13:24:01;16.50;58.20
27567;DHT22;15006;48.584;9.186;2023-05-07T13:26:30;16.40;59.20
27567;DHT22;15006;48.584;9.186;2023-05-07T13:28:57;16.10;60.00
27567;DHT22;15006;48.584;9.186;2023-05-07T13:31:23;15.80;61.10
27567;DHT22;15006;48.584;9.186;2023-05-07T13:33:50;15.60;63.00
27567;DHT22;15006;48.584;9.186;2023-05-07T13:36:16;15.30;64.70
27567;DHT22;15006;48.584;9.186;2023-05-07T13:38:42;15.00;65.80
27567;DHT22;15006;48.584;9.186;2023-05-07T13:41:08;14.70;67.10
27567;DHT22;15006;48.584;9.186;2023-05-07T13:43:34;14.50;68.70
27567;DHT22;15006;48.584;9.186;2023-05-07T13:46:04;14.20;71.10
27567;DHT22;15006;48.584;9.186;2023-05-07T13:48:31;14.00;73.00
27567;DHT22;15006;48.584;9.186;2023-05-07T13:51:04;13.80;74.90
27567;DHT22;15006;48.584;9.186;2023-05-07T13:53:37;13.60;77.00
27567;DHT22;15006;48.584;9.186;2023-05-07T13:56:05;13.50;78.00
27567;DHT22;15006;48.584;9.186;2023-05-07T13:58:32;13.30;80.00
27567;DHT22;15006;48.584;9.186;2023-05-07T14:00:59;13.20;81.50
27567;DHT22;15006;48.584;9.186;2023-05-07T14:03:26;13.10;83.20
27567;DHT22;15006;48.584;9.186;2023-05-07T14:05:53;13.00;85.00
27567;DHT22;15006;48.584;9.186;2023-05-07T14:08:21;13.00;87.50
27567;DHT22;15006;48.584;9.186;2023-05-07T14:10:49;12.90;89.70
27567;DHT22;15006;48.584;9.186;2023-05-07T14:13:17;12.90;90.60
27567;DHT22;15006;48.584;9.186;2023-05-07T14:15:44;12.80;91.80
27567;DHT22;15006;48.584;9.186;2023-05-07T14:18:16;12.70;92.80
27567;DHT22;15006;48.584;9.186;2023-05-07T14:20:42;12.70;93.90
27567;DHT22;15006;48.584;9.186;2023-05-07T14:23:13;12.60;94.90
27567;DHT22;15006;48.584;9.186;2023-05-07T14:25:39;12.60;95.90
27567;DHT22;15006;48.584;9.186;2023-05-07T14:28:07;12.60;96.90
27567;DHT22;15006;48.584;9.186;2023-05-07T14:30:35;12.60;97.60
27567;DHT22;15006;48.584;9.186;2023-05-07T14:33:03;12.50;98.70
27567;DHT22;15006;48.584;9.186;2023-05-07T14:35:29;12.60;99.60
27567;DHT22;15006;48.584;9.186;2023-05-07T14:37:55;12.60;99.90
27567;DHT22;15006;48.584;9.186;2023-05-07T14:40:23;12.60;99.90
27567;DHT22;15006;48.584;9.186;2023-05-07T14:42:49;12.60;99.90
27567;DHT22;15006;48.584;9.186;2023-05-07T14:45:15;12.60;99.90
27567;DHT22;15006;48.584;9.186;2023-05-07T14:47:42;12.60;99.90
27567;DHT22;15006;48.584;9.186;2023-05-07T14:50:08;12.70;99.90
27567;DHT22;15006;48.584;9.186;2023-05-07T14:52:35;12.80;99.90
27567;DHT22;15006;48.584;9.186;2023-05-07T14:55:01;12.80;99.90
27567;DHT22;15006;48.584;9.186;2023-05-07T14:57:27;12.80;99.90
27567;DHT22;15006;48.584;9.186;2023-05-07T14:59:53;12.80;99.90
27567;DHT22;15006;48.584;9.186;2023-05-07T15:02:19;12.90;99.90
27567;DHT22;15006;48.584;9.186;2023-05-07T15:04:46;12.90;99.90
27567;DHT22;15006;48.584;9.186;2023-05-07T15:07:14;12.90;99.90
27567;DHT22;15006;48.584;9.186;2023-05-07T15:09:44;13.00;99.90
27567;DHT22;15006;48.584;9.186;2023-05-07T15:12:11;13.10;99.90
27567;DHT22;15006;48.584;9.186;2023-05-07T15:14:39;13.10;99.90
27567;DHT22;15006;48.584;9.186;2023-05-07T15:17:05;13.10;99.90
27567;DHT22;15006;48.584;9.186;2023-05-07T15:19:31;13.20;99.90
27567;DHT22;15006;48.584;9.186;2023-05-07T15:21:59;13.20;99.90
27567;DHT22;15006;48.584;9.186;2023-05-07T15:24:29;13.30;99.90
27567;DHT22;15006;48.584;9.186;2023-05-07T15:26:56;13.30;99.90
27567;DHT22;15006;48.584;9.186;2023-05-07T15:29:24;13.40;99.90
27567;DHT22;15006;48.584;9.186;2023-05-07T15:31:50;13.40;99.90
27567;DHT22;15006;48.584;9.186;2023-05-07T15:34:17;13.50;99.90
27567;DHT22;15006;48.584;9.186;2023-05-07T15:36:43;13.60;99.90
27567;DHT22;15006;48.584;9.186;2023-05-07T15:39:09;13.60;99.90
27567;DHT22;15006;48.584;9.186;2023-05-07T15:41:36;13.70;99.90
27567;DHT22;15006;48.584;9.186;2023-05-07T15:44:03;13.80;99.90
27567;DHT22;15006;48.584;9.186;2023-05-07T15:46:29;13.90;99.90